Wolf Point, MT

12:36 PM MDT on May 29, 2015 (GMT -0600)
Clayton | | Change Station
CLOSE
Current Station
Airport
Location: Wolf Point,
Elevation: 1985 ft
Nearby Weather Stations

Elev 1985 ft 48.09 °N, 105.58 °W | Updated 43 minutes ago

Partly Cloudy
Partly Cloudy
53 °F
Feels Like 53 °F
N
5
Wind Variable Wind from Variable

Today
High -- | Low -- °F
--% Chance of Precip.
Yesterday
High -- | Low -- °F
Precip. -- in
5:08 AM 8:51 PM
Waxing Gibbous, 85% visible
Pressure 30.38 in
Visibility 10.0 miles
Clouds Scattered Clouds 4000 ft
Dew Point 33 °F
Humidity 47%
Rainfall 0.00 in
Snow Depth Not available.
UV 8 out of 12
Pollen 8.20 out of 12
Air Quality Not available.
Flu Activity Sporadic
METAR KOLF 291753Z AUTO VRB04KT 10SM SCT040 12/01 A3035 RMK AO2 SLP287 T01170006 10122 20011 58004

More Conditions Fewer Conditions

Pressure 30.38 in
Visibility 10.0 miles
Clouds Scattered Clouds 4000 ft
Dew Point 33 °F
Humidity 47%
Rainfall 0.00 in
Snow Depth Not available.
UV 8 out of 12
Pollen 8.20 out of 12
Air Quality Not available.
Flu Activity Sporadic
METAR KOLF 291753Z AUTO VRB04KT 10SM SCT040 12/01 A3035 RMK AO2 SLP287 T01170006 10122 20011 58004

More Conditions Fewer Conditions

10-Day Weather Forecast

Almanac

Astronomy

May. 29, 2015 Rise Set
Actual Time
Civil Twilight
Nautical Twilight
Astronomical Twilight
Moon
Length of Visible Light
Length of Day
Tomorrow will be .
, % of the Moon is Illuminated

Today's Extremes

State Highs State Lows

Community

WunderPhotos

Upload Photos

1,825,322 photos uploaded!

WunderBlogs® & News

Nearby

Air Quality

  Air Quality AQ Index Pollutant
Not available.

Snow Depth

Station Depth Elevation

Earthquake Activity

City Distance Mag. Time & Date
Minimum magnitude displayed is 2.5.

Coastal Water Temperatures

Place Temperature

Stations

Nearby Weather Stations

Station Location Temp. Windchill Dew Point Humidity Wind Precip. Elev Updated Type